Aérodrome :
LOGIN :

S'inscrire | Disclaimer

   EN    FR    IT 

 










Légende :    VFR   VFR Marginal   IFR   IFR Intensif   IFR Très Intensif
Visi : 
Plafond : 
>= 8 km
>= 3000ft
5 à 8 km
1000 à 3000 ft
1500m à 5 km
500 à 1000 ft
800 à 1500m
200 à 500 ft
< 800m
< 200 ft
Symboles :   Orages  Brouillard  Fortes neiges  Fortes précipitations  Vent > 20 kt
SIGMETs :   Divers  Orages  Givrage  Turbulence  Onde Orograph.  Cendres Volcan.






- Altitude de l'aérodrome : 1302 ft
- Code IATA : GNB


LFLS - Grenoble / St. Geoirs

DERNIER METAR :
  • 152130Z AUTO 19006KT 170V240 9999 FEW019 SCT024 BKN220 10/07 Q1012

METARs EXPIRÉS :
  • 152100Z AUTO 20010KT 9999 OVC020 11/08 Q1012
  • 152030Z AUTO 21005KT 190V250 9999 OVC019 11/08 Q1012
  • 152000Z AUTO 19008KT 130V230 9999 OVC018 11/09 Q1012 NOSIG
  • 151930Z AUTO 19007KT 150V210 9999 OVC018 11/08 Q1012 NOSIG
  • 151900Z AUTO 19007KT 160V220 9999 OVC018 11/09 Q1012 NOSIG

TAF AMD TAF LFLS
Valide du 15 à 20h jusqu'au 16 à 15h UTC


152004Z 1520/1615 VRB03KT 9999 BKN018
BECMG 1520/1523 24008KT
TEMPO 1606/1615 24015G25KT
ATIS : +33 4 76 65 55 89



MET'MAP, la Météo Aéronautique d'un coup d'oeil ! - Copyright ORBIFLY Décembre 2007 - Disclaimer

ORBIFLY MET'MAP TEAM :

Programmation & Développement : Alexandra Zaïnal
Sur une idée originale de : Baudouin d'Aumeries
Assistance à la programmation : Marc-Olivier Méhu
Soutien technique & logistique : Manuel Goepfert

Contact : metmap@orbifly.com




SOURCES & CREDITS :

   NOAA